createdAt,value
2022-08-16T00:02:28.569Z,23.60
2022-08-16T00:04:52.635Z,23.80
2022-08-16T00:07:16.498Z,23.60
2022-08-16T00:09:41.688Z,23.60
2022-08-16T00:12:07.161Z,23.70
2022-08-16T00:14:34.272Z,23.70
2022-08-16T00:17:18.303Z,23.60
2022-08-16T00:19:43.341Z,23.60
2022-08-16T00:22:13.579Z,23.60
2022-08-16T00:24:39.256Z,23.50
2022-08-16T00:27:03.998Z,23.50
2022-08-16T00:29:29.681Z,23.70
2022-08-16T00:32:01.082Z,23.60
2022-08-16T00:34:43.321Z,23.70
2022-08-16T00:37:09.270Z,23.60
2022-08-16T00:39:32.977Z,23.70
2022-08-16T00:41:56.923Z,23.70
2022-08-16T00:44:23.332Z,23.70
2022-08-16T00:47:02.426Z,23.80
2022-08-16T00:49:39.714Z,23.70
2022-08-16T00:52:29.897Z,23.70
2022-08-16T00:54:52.087Z,23.60
2022-08-16T00:57:15.753Z,23.70
2022-08-16T00:59:59.041Z,23.70
2022-08-16T01:02:31.428Z,23.70
2022-08-16T01:05:11.220Z,23.70
2022-08-16T01:07:51.617Z,23.70
2022-08-16T01:10:17.064Z,23.70
2022-08-16T01:12:40.801Z,23.80
2022-08-16T01:15:10.233Z,23.70
2022-08-16T01:17:36.876Z,23.80
2022-08-16T01:20:23.882Z,23.70
2022-08-16T01:22:56.336Z,23.80
2022-08-16T01:25:33.955Z,23.80
2022-08-16T01:28:02.426Z,23.80
2022-08-16T01:30:30.216Z,23.70
2022-08-16T01:33:14.221Z,23.80
2022-08-16T01:35:45.604Z,23.80
2022-08-16T01:38:20.664Z,23.70
2022-08-16T01:40:48.866Z,23.70
2022-08-16T01:43:13.757Z,23.60
2022-08-16T01:45:40.467Z,23.60
2022-08-16T01:48:19.268Z,23.60
2022-08-16T01:51:08.520Z,23.70
2022-08-16T01:53:31.609Z,23.60
2022-08-16T01:56:24.972Z,23.50
2022-08-16T01:58:51.212Z,23.50
2022-08-16T02:01:15.536Z,23.40
2022-08-16T02:03:41.701Z,23.40
2022-08-16T02:06:08.015Z,23.40
2022-08-16T02:08:33.561Z,23.40
2022-08-16T02:10:58.714Z,23.40
2022-08-16T02:13:27.716Z,23.40
2022-08-16T02:15:56.627Z,23.30
2022-08-16T02:18:20.472Z,23.40
2022-08-16T02:20:52.390Z,23.30
2022-08-16T02:23:18.958Z,23.20
2022-08-16T02:25:50.491Z,23.20
2022-08-16T02:28:17.289Z,23.10
2022-08-16T02:30:50.067Z,23.00
2022-08-16T02:33:15.625Z,23.20
2022-08-16T02:35:54.074Z,23.10
2022-08-16T02:38:24.541Z,23.10
2022-08-16T02:40:48.386Z,23.00
2022-08-16T02:43:13.065Z,23.00
2022-08-16T02:45:37.439Z,22.90
2022-08-16T02:48:29.886Z,22.90
2022-08-16T02:50:53.831Z,23.10
2022-08-16T02:53:23.603Z,22.90
2022-08-16T02:55:50.538Z,22.80
2022-08-16T02:58:14.312Z,22.70
2022-08-16T03:00:38.528Z,22.70
2022-08-16T03:03:10.917Z,22.70
2022-08-16T03:05:39.208Z,22.60
2022-08-16T03:08:06.012Z,22.70
2022-08-16T03:10:49.846Z,22.70
2022-08-16T03:13:14.307Z,22.70
2022-08-16T03:15:39.435Z,22.50
2022-08-16T03:18:03.656Z,22.60
2022-08-16T03:20:38.375Z,22.60
2022-08-16T03:23:03.713Z,22.50
2022-08-16T03:25:40.715Z,22.50
2022-08-16T03:28:09.417Z,22.40
2022-08-16T03:30:37.259Z,22.30
2022-08-16T03:33:04.186Z,22.30
2022-08-16T03:35:43.062Z,22.30
2022-08-16T03:38:33.121Z,22.40
2022-08-16T03:41:03.135Z,22.30
2022-08-16T03:43:51.762Z,22.20
2022-08-16T03:46:44.900Z,22.20
2022-08-16T03:48:59.494Z,22.10
2022-08-16T03:51:25.493Z,22.20
2022-08-16T03:54:00.859Z,22.00
2022-08-16T03:56:28.017Z,22.10
2022-08-16T03:58:56.336Z,22.10
2022-08-16T04:01:29.277Z,22.10
2022-08-16T04:03:55.207Z,22.20
2022-08-16T04:06:19.471Z,22.10
2022-08-16T04:08:45.280Z,22.00
2022-08-16T04:11:08.932Z,22.00
2022-08-16T04:14:01.590Z,22.10
2022-08-16T04:16:27.710Z,22.10
2022-08-16T04:19:01.256Z,22.10
2022-08-16T04:21:29.320Z,22.00
2022-08-16T04:23:54.907Z,22.00
2022-08-16T04:26:19.309Z,22.00
2022-08-16T04:28:56.768Z,22.00
2022-08-16T04:31:27.613Z,22.00
2022-08-16T04:33:59.284Z,22.00
2022-08-16T04:36:23.364Z,22.00
2022-08-16T04:38:50.012Z,22.00
2022-08-16T04:41:15.344Z,21.90
2022-08-16T04:43:43.679Z,21.90
2022-08-16T04:47:00.063Z,21.90
2022-08-16T04:48:53.809Z,21.90
2022-08-16T04:51:20.341Z,21.90
2022-08-16T04:53:45.917Z,22.00
2022-08-16T04:56:11.882Z,21.90
2022-08-16T04:58:38.426Z,22.00
2022-08-16T05:01:09.443Z,22.00
2022-08-16T05:03:33.595Z,21.90
2022-08-16T05:06:02.228Z,22.00
2022-08-16T05:08:31.404Z,22.00
2022-08-16T05:11:08.374Z,21.90
2022-08-16T05:13:40.474Z,21.90
2022-08-16T05:16:11.781Z,22.00
2022-08-16T05:18:40.703Z,22.00
2022-08-16T05:21:09.682Z,22.00
2022-08-16T05:23:38.235Z,22.00
2022-08-16T05:26:02.482Z,22.00
2022-08-16T05:28:31.062Z,22.20
2022-08-16T05:31:04.053Z,22.40
2022-08-16T05:33:32.883Z,22.50
2022-08-16T05:35:58.708Z,22.50
2022-08-16T05:38:32.641Z,22.60
2022-08-16T05:41:06.847Z,22.70
2022-08-16T05:43:47.032Z,22.90
2022-08-16T05:46:30.362Z,23.10
2022-08-16T05:49:10.546Z,23.20
2022-08-16T05:51:40.271Z,23.30
2022-08-16T05:54:05.405Z,23.30
2022-08-16T05:56:28.994Z,23.40
2022-08-16T05:58:52.637Z,23.80
2022-08-16T06:01:17.011Z,23.90
2022-08-16T06:03:44.813Z,24.00
2022-08-16T06:06:39.967Z,24.10
2022-08-16T06:09:05.012Z,24.10
2022-08-16T06:11:32.929Z,24.10
2022-08-16T06:13:58.757Z,24.30
2022-08-16T06:16:32.486Z,24.30
2022-08-16T06:18:57.037Z,24.20
2022-08-16T06:21:23.718Z,24.50
2022-08-16T06:23:54.737Z,24.30
2022-08-16T06:26:20.158Z,24.30
2022-08-16T06:28:44.141Z,24.50
2022-08-16T06:31:18.344Z,24.50
2022-08-16T06:33:48.685Z,24.50
2022-08-16T06:36:17.197Z,24.50
2022-08-16T06:39:18.072Z,24.70
2022-08-16T06:42:02.247Z,24.70
2022-08-16T06:45:01.741Z,24.80
2022-08-16T06:47:52.348Z,24.60
2022-08-16T06:50:22.296Z,24.90
2022-08-16T06:52:59.817Z,24.80
2022-08-16T06:55:29.864Z,24.80
2022-08-16T06:57:59.725Z,24.80
2022-08-16T07:00:25.959Z,25.00
2022-08-16T07:03:03.618Z,25.00
2022-08-16T07:05:47.309Z,25.20
2022-08-16T07:08:18.303Z,25.30
2022-08-16T07:10:44.847Z,25.40
2022-08-16T07:13:12.833Z,25.40
2022-08-16T07:15:50.193Z,25.20
2022-08-16T07:18:21.351Z,25.20
2022-08-16T07:20:49.586Z,24.90
2022-08-16T07:23:14.375Z,25.10
2022-08-16T07:25:47.145Z,25.30
2022-08-16T07:28:20.674Z,25.50
2022-08-16T07:30:50.176Z,25.80
2022-08-16T07:33:53.571Z,25.40
2022-08-16T07:36:22.101Z,25.70
2022-08-16T07:38:47.135Z,25.80
2022-08-16T07:41:15.824Z,25.70
2022-08-16T07:43:44.173Z,25.80
2022-08-16T07:46:38.822Z,26.00
2022-08-16T07:48:55.690Z,26.00
2022-08-16T07:51:27.389Z,26.00
2022-08-16T07:54:02.654Z,26.00
2022-08-16T07:56:37.107Z,26.10
2022-08-16T07:59:01.927Z,26.30
2022-08-16T08:01:28.122Z,26.20
2022-08-16T08:03:55.242Z,26.20
2022-08-16T08:06:27.803Z,26.00
2022-08-16T08:08:57.159Z,26.10
2022-08-16T08:11:24.116Z,26.20
2022-08-16T08:13:55.039Z,26.40
2022-08-16T08:16:21.355Z,26.60
2022-08-16T08:18:49.825Z,26.50
2022-08-16T08:21:13.724Z,26.50
2022-08-16T08:23:37.525Z,26.70
2022-08-16T08:26:17.462Z,27.00
2022-08-16T08:28:41.929Z,27.10
2022-08-16T08:31:08.317Z,26.70
2022-08-16T08:33:34.799Z,26.60
2022-08-16T08:36:01.208Z,26.40
2022-08-16T08:38:43.728Z,26.40
2022-08-16T08:41:09.779Z,26.30
2022-08-16T08:43:41.550Z,26.40
2022-08-16T08:46:18.384Z,26.50
2022-08-16T08:48:59.923Z,27.00
2022-08-16T08:51:35.574Z,27.20
2022-08-16T08:54:01.122Z,27.40
2022-08-16T08:56:35.088Z,27.40
2022-08-16T08:59:34.385Z,27.30
2022-08-16T09:02:11.401Z,27.40
2022-08-16T09:04:48.794Z,27.50
2022-08-16T09:07:17.703Z,27.50
2022-08-16T09:09:44.188Z,27.40
2022-08-16T09:12:36.280Z,27.40
2022-08-16T09:15:00.537Z,27.60
2022-08-16T09:17:48.983Z,27.70
2022-08-16T09:20:16.489Z,27.70
2022-08-16T09:22:42.178Z,27.80
2022-08-16T09:25:11.175Z,27.80
2022-08-16T09:27:56.780Z,27.90
2022-08-16T09:30:33.711Z,28.00
2022-08-16T09:32:59.951Z,28.10
2022-08-16T09:35:23.895Z,28.20
2022-08-16T09:37:47.518Z,28.30
2022-08-16T09:40:33.292Z,28.30
2022-08-16T09:43:06.920Z,28.40
2022-08-16T09:45:33.096Z,28.50
2022-08-16T09:48:01.224Z,28.40
2022-08-16T09:50:37.124Z,28.30
2022-08-16T09:53:04.921Z,28.20
2022-08-16T09:55:31.221Z,28.10
2022-08-16T09:57:54.908Z,28.30
2022-08-16T10:00:44.440Z,28.50
2022-08-16T10:03:04.126Z,28.60
2022-08-16T10:05:27.954Z,28.70
2022-08-16T10:07:56.662Z,28.70
2022-08-16T10:10:30.829Z,28.80
2022-08-16T10:13:12.317Z,28.60
2022-08-16T10:15:38.967Z,28.60
2022-08-16T10:19:00.962Z,28.80
2022-08-16T10:20:53.500Z,28.70
2022-08-16T10:23:21.524Z,28.50
2022-08-16T10:27:19.483Z,28.70
2022-08-16T10:28:39.777Z,28.80
2022-08-16T10:31:06.205Z,28.90
2022-08-16T10:33:33.626Z,29.00
2022-08-16T10:36:03.053Z,29.00
2022-08-16T10:38:28.295Z,29.00
2022-08-16T10:40:54.919Z,29.20
2022-08-16T10:43:20.596Z,29.10
2022-08-16T10:45:45.224Z,29.20
2022-08-16T10:48:28.588Z,29.30
2022-08-16T10:50:58.062Z,29.40
2022-08-16T10:53:23.970Z,29.20
2022-08-16T10:55:57.463Z,29.20
2022-08-16T10:58:34.023Z,29.40
2022-08-16T11:01:43.074Z,29.40
2022-08-16T11:05:04.414Z,29.60
2022-08-16T11:07:42.190Z,29.60
2022-08-16T11:09:49.673Z,29.90
2022-08-16T11:12:15.102Z,29.80
2022-08-16T11:15:11.246Z,29.60
2022-08-16T11:17:25.691Z,29.50
2022-08-16T11:22:42.018Z,30.00
2022-08-16T11:26:03.883Z,29.60
2022-08-16T11:28:03.648Z,28.90
2022-08-16T11:30:37.762Z,28.70
2022-08-16T11:33:05.544Z,29.10
2022-08-16T11:38:46.775Z,29.30
2022-08-16T11:41:07.626Z,29.90
2022-08-16T11:43:35.829Z,30.40
2022-08-16T11:46:44.633Z,30.10
2022-08-16T11:48:48.593Z,29.90
2022-08-16T11:51:12.371Z,29.50
2022-08-16T11:53:37.408Z,29.60
2022-08-16T11:56:02.121Z,29.10
2022-08-16T11:58:31.455Z,29.10
2022-08-16T12:00:59.758Z,29.10
2022-08-16T12:03:34.187Z,29.60
2022-08-16T12:06:02.388Z,30.00
2022-08-16T12:08:28.408Z,30.40
2022-08-16T12:10:53.739Z,30.40
2022-08-16T12:13:19.730Z,30.40
2022-08-16T12:15:47.501Z,30.10
2022-08-16T12:18:11.897Z,29.80
2022-08-16T12:20:46.545Z,29.70
2022-08-16T12:23:11.982Z,29.70
2022-08-16T12:25:37.811Z,29.70
2022-08-16T12:28:03.679Z,30.00
2022-08-16T12:30:36.258Z,29.80
2022-08-16T12:33:03.629Z,29.80
2022-08-16T12:35:29.633Z,29.80
2022-08-16T12:37:56.689Z,29.50
2022-08-16T12:40:29.307Z,29.60
2022-08-16T12:42:58.919Z,29.60
2022-08-16T12:45:26.714Z,29.70
2022-08-16T12:48:32.745Z,29.80
2022-08-16T12:50:54.542Z,29.70
2022-08-16T12:53:23.237Z,29.60
2022-08-16T12:55:47.873Z,29.60
2022-08-16T12:58:49.500Z,29.60
2022-08-16T13:00:59.963Z,29.70
2022-08-16T13:03:26.298Z,29.80
2022-08-16T13:05:55.335Z,29.80
2022-08-16T13:08:21.646Z,29.80
2022-08-16T13:10:48.850Z,29.90
2022-08-16T13:13:24.415Z,29.80
2022-08-16T13:15:51.692Z,29.60
2022-08-16T13:18:33.443Z,29.60
2022-08-16T13:20:59.537Z,29.70
2022-08-16T13:23:23.400Z,29.70
2022-08-16T13:25:50.366Z,29.60
2022-08-16T13:28:19.524Z,29.50
2022-08-16T13:30:49.589Z,29.70
2022-08-16T13:33:18.924Z,30.10
2022-08-16T13:35:57.644Z,30.30
2022-08-16T13:38:31.416Z,30.60
2022-08-16T13:41:02.268Z,30.90
2022-08-16T13:43:27.437Z,31.00
2022-08-16T13:45:52.510Z,31.00
2022-08-16T13:48:24.967Z,30.90
2022-08-16T13:50:52.097Z,30.90
2022-08-16T13:53:15.909Z,30.80
2022-08-16T13:55:40.908Z,31.00
2022-08-16T13:58:37.231Z,30.70
2022-08-16T14:00:52.852Z,30.60
2022-08-16T14:03:18.370Z,30.60
2022-08-16T14:05:43.140Z,30.60
2022-08-16T14:08:08.398Z,30.50
2022-08-16T14:10:32.239Z,30.50
2022-08-16T14:12:55.941Z,30.30
2022-08-16T14:15:20.981Z,30.10
2022-08-16T14:18:15.423Z,30.10
2022-08-16T14:20:28.842Z,30.10
2022-08-16T14:22:54.752Z,30.20
2022-08-16T14:25:23.085Z,30.40
2022-08-16T14:27:47.968Z,30.40
2022-08-16T14:30:20.241Z,30.40
2022-08-16T14:32:46.844Z,30.80
2022-08-16T14:35:29.369Z,30.80
2022-08-16T14:38:01.513Z,30.50
2022-08-16T14:40:29.277Z,30.40
2022-08-16T14:42:56.167Z,29.90
2022-08-16T14:45:24.103Z,30.20
2022-08-16T14:47:54.233Z,30.20
2022-08-16T14:50:21.973Z,30.40
2022-08-16T14:52:56.699Z,30.40
2022-08-16T14:55:21.139Z,30.30
2022-08-16T14:57:46.093Z,30.30
2022-08-16T15:00:15.752Z,30.40
2022-08-16T15:02:42.864Z,30.40
2022-08-16T15:05:09.396Z,30.50
2022-08-16T15:07:35.216Z,30.70
2022-08-16T15:10:01.700Z,30.60
2022-08-16T15:12:31.155Z,30.60
2022-08-16T15:14:58.789Z,30.70
2022-08-16T15:17:25.457Z,30.80
2022-08-16T15:19:52.632Z,30.80
2022-08-16T15:22:26.364Z,30.80
2022-08-16T15:24:50.589Z,30.90
2022-08-16T15:27:15.613Z,30.90
2022-08-16T15:29:39.200Z,30.70
2022-08-16T15:32:04.516Z,30.70
2022-08-16T15:34:32.956Z,30.70
2022-08-16T15:36:56.529Z,30.50
2022-08-16T15:39:30.268Z,30.50
2022-08-16T15:42:11.140Z,30.50
2022-08-16T15:44:51.892Z,30.50
2022-08-16T15:47:25.916Z,30.30
2022-08-16T15:49:55.358Z,30.30
2022-08-16T15:52:28.987Z,30.60
2022-08-16T15:54:55.486Z,30.40
2022-08-16T15:57:20.767Z,30.20
2022-08-16T15:59:49.426Z,30.20
2022-08-16T16:02:29.242Z,30.40
2022-08-16T16:04:55.249Z,30.40
2022-08-16T16:07:18.920Z,30.40
2022-08-16T16:09:42.475Z,30.50
2022-08-16T16:12:41.917Z,30.50
2022-08-16T16:14:59.429Z,30.40
2022-08-16T16:17:25.217Z,30.40
2022-08-16T16:19:53.858Z,30.50
2022-08-16T16:22:18.094Z,30.60
2022-08-16T16:24:44.472Z,30.40
2022-08-16T16:27:08.171Z,30.50
2022-08-16T16:29:37.293Z,30.60
2022-08-16T16:32:07.571Z,30.60
2022-08-16T16:34:35.257Z,30.70
2022-08-16T16:36:59.740Z,30.40
2022-08-16T16:39:23.488Z,30.40
2022-08-16T16:41:47.070Z,30.50
2022-08-16T16:44:10.737Z,30.50
2022-08-16T16:46:43.270Z,30.30
2022-08-16T16:49:10.208Z,30.50
2022-08-16T16:51:40.797Z,30.50
2022-08-16T16:54:05.490Z,30.50
2022-08-16T16:56:37.270Z,30.30
2022-08-16T16:59:04.681Z,30.00
2022-08-16T17:01:41.237Z,30.20
2022-08-16T17:04:22.243Z,30.30
2022-08-16T17:06:53.570Z,30.20
2022-08-16T17:09:21.260Z,30.30
2022-08-16T17:11:47.460Z,30.10
2022-08-16T17:14:33.070Z,30.10
2022-08-16T17:16:58.181Z,30.20
2022-08-16T17:19:23.864Z,30.30
2022-08-16T17:21:49.188Z,30.00
2022-08-16T17:24:17.986Z,30.00
2022-08-16T17:26:43.376Z,29.90
2022-08-16T17:29:12.555Z,29.80
2022-08-16T17:31:40.653Z,29.60
2022-08-16T17:36:52.752Z,29.90
2022-08-16T17:39:18.977Z,29.80
2022-08-16T17:39:28.819Z,29.80
2022-08-16T17:41:43.667Z,29.70
2022-08-16T17:44:08.903Z,29.60
2022-08-16T17:46:51.527Z,29.60
2022-08-16T17:49:16.209Z,29.60
2022-08-16T17:51:39.850Z,29.60
2022-08-16T17:54:04.955Z,29.70
2022-08-16T17:56:29.273Z,29.70
2022-08-16T17:58:53.051Z,29.70
2022-08-16T18:01:17.171Z,29.60
2022-08-16T18:04:07.119Z,29.50
2022-08-16T18:06:27.387Z,29.50
2022-08-16T18:08:57.907Z,29.40
2022-08-16T18:11:26.455Z,29.40
2022-08-16T18:13:50.942Z,29.50
2022-08-16T18:16:16.735Z,29.30
2022-08-16T18:18:40.397Z,29.30
2022-08-16T18:21:21.545Z,29.30
2022-08-16T18:23:45.271Z,29.30
2022-08-16T18:26:09.597Z,29.20
2022-08-16T18:28:37.850Z,29.20
2022-08-16T18:31:05.240Z,29.20
2022-08-16T18:33:29.413Z,29.20
2022-08-16T18:35:57.855Z,29.10
2022-08-16T18:38:22.037Z,29.00
2022-08-16T18:40:47.109Z,29.00
2022-08-16T18:43:13.293Z,29.00
2022-08-16T18:45:41.121Z,29.00
2022-08-16T18:48:05.745Z,28.90
2022-08-16T18:50:29.727Z,28.90
2022-08-16T18:53:15.666Z,28.60
2022-08-16T18:55:45.432Z,28.70
2022-08-16T18:58:10.069Z,28.60
2022-08-16T19:00:55.769Z,28.50
2022-08-16T19:03:23.910Z,28.30
2022-08-16T19:05:50.285Z,28.20
2022-08-16T19:08:15.989Z,28.10
2022-08-16T19:10:41.018Z,28.00
2022-08-16T19:13:09.021Z,28.00
2022-08-16T19:15:33.190Z,28.00
2022-08-16T19:17:58.182Z,27.90
2022-08-16T19:20:25.688Z,27.90
2022-08-16T19:23:10.281Z,28.00
2022-08-16T19:25:46.835Z,27.80
2022-08-16T19:28:49.841Z,27.70
2022-08-16T19:30:56.814Z,27.60
2022-08-16T19:33:22.002Z,27.50
2022-08-16T19:35:45.614Z,27.50
2022-08-16T19:38:09.255Z,27.40
2022-08-16T19:40:37.480Z,27.40
2022-08-16T19:43:02.924Z,27.30
2022-08-16T19:45:31.942Z,27.30
2022-08-16T19:48:01.132Z,27.30
2022-08-16T19:50:36.258Z,27.30
2022-08-16T19:53:12.893Z,27.20
2022-08-16T19:55:43.262Z,27.10
2022-08-16T19:58:07.579Z,27.20
2022-08-16T20:00:35.208Z,27.10
2022-08-16T20:02:59.551Z,27.10
2022-08-16T20:05:29.066Z,27.00
2022-08-16T20:07:52.764Z,27.00
2022-08-16T20:10:20.158Z,27.10
2022-08-16T20:13:02.505Z,26.80
2022-08-16T20:15:31.101Z,26.80
2022-08-16T20:17:54.909Z,26.70
2022-08-16T20:20:23.927Z,26.70
2022-08-16T20:22:53.870Z,26.80
2022-08-16T20:25:28.707Z,26.80
2022-08-16T20:27:52.575Z,26.80
2022-08-16T20:30:18.251Z,26.70
2022-08-16T20:32:43.112Z,26.70
2022-08-16T20:35:10.601Z,26.80
2022-08-16T20:37:37.117Z,26.80
2022-08-16T20:40:28.069Z,26.90
2022-08-16T20:42:46.112Z,26.90
2022-08-16T20:45:11.997Z,27.00
2022-08-16T20:47:35.958Z,26.90
2022-08-16T20:49:59.737Z,26.90
2022-08-16T20:52:25.541Z,26.80
2022-08-16T20:54:49.883Z,26.80
2022-08-16T20:57:16.403Z,26.80
2022-08-16T20:59:40.774Z,26.80
2022-08-16T21:02:05.077Z,26.80
2022-08-16T21:04:30.351Z,26.80
2022-08-16T21:06:55.681Z,26.90
2022-08-16T21:09:19.995Z,26.80
2022-08-16T21:11:43.588Z,26.80
2022-08-16T21:14:10.894Z,26.80
2022-08-16T21:16:34.476Z,26.80
2022-08-16T21:18:58.089Z,26.60
2022-08-16T21:21:22.796Z,26.80
2022-08-16T21:23:50.087Z,26.80
2022-08-16T21:26:13.800Z,26.70
2022-08-16T21:28:42.696Z,26.80
2022-08-16T21:31:08.922Z,26.90
2022-08-16T21:33:32.814Z,26.90
2022-08-16T21:35:56.487Z,26.70
2022-08-16T21:38:30.041Z,26.80
2022-08-16T21:40:54.606Z,26.80
2022-08-16T21:43:22.970Z,26.90
2022-08-16T21:45:48.108Z,26.70
2022-08-16T21:48:19.191Z,26.70
2022-08-16T21:50:59.025Z,26.80
2022-08-16T21:53:26.635Z,26.80
2022-08-16T21:55:56.609Z,26.70
2022-08-16T21:58:20.258Z,26.90
2022-08-16T22:00:44.090Z,26.80
2022-08-16T22:03:09.892Z,26.80
2022-08-16T22:05:36.197Z,26.90
2022-08-16T22:08:01.592Z,26.90
2022-08-16T22:11:07.899Z,26.90
2022-08-16T22:13:20.996Z,26.80
2022-08-16T22:15:45.783Z,26.80
2022-08-16T22:18:09.369Z,26.90
2022-08-16T22:20:34.465Z,26.90
2022-08-16T22:23:08.110Z,26.90
2022-08-16T22:25:31.794Z,26.70
2022-08-16T22:27:55.351Z,26.70
2022-08-16T22:30:19.107Z,26.80
2022-08-16T22:32:44.872Z,26.70
2022-08-16T22:35:13.337Z,26.60
2022-08-16T22:37:39.726Z,26.40
2022-08-16T22:40:23.247Z,26.50
2022-08-16T22:42:52.648Z,26.50
2022-08-16T22:45:17.639Z,26.60
2022-08-16T22:47:41.268Z,26.40
2022-08-16T22:50:05.529Z,26.40
2022-08-16T22:52:48.793Z,26.40
2022-08-16T22:55:14.485Z,26.40
2022-08-16T22:57:38.314Z,26.40
2022-08-16T23:00:01.909Z,26.30
2022-08-16T23:02:25.534Z,26.10
2022-08-16T23:04:49.122Z,26.10
2022-08-16T23:07:12.776Z,26.20
2022-08-16T23:09:36.709Z,26.10
2022-08-16T23:12:07.360Z,26.20
2022-08-16T23:14:31.423Z,26.10
2022-08-16T23:16:55.015Z,26.10
2022-08-16T23:19:19.045Z,26.10
2022-08-16T23:21:45.372Z,26.00
2022-08-16T23:24:10.088Z,26.00
2022-08-16T23:26:43.814Z,26.00
2022-08-16T23:29:23.607Z,25.80
2022-08-16T23:31:49.202Z,25.90
2022-08-16T23:34:12.919Z,25.90
2022-08-16T23:36:37.306Z,25.70
2022-08-16T23:39:00.845Z,25.80
2022-08-16T23:41:24.648Z,25.70
2022-08-16T23:43:48.202Z,25.80
2022-08-16T23:46:16.877Z,25.70
2022-08-16T23:50:00.717Z,25.90
2022-08-16T23:51:24.691Z,25.90
2022-08-16T23:53:48.205Z,26.00
2022-08-16T23:56:14.389Z,25.90
2022-08-16T23:58:43.470Z,25.80
